Time;durP1;ratioP1;P1;durP2;ratioP2;P2;SDS_P1;SDS_P2;PMS_P1;PMS_P2;Temp;Humidity;BMP_temperature;BMP_pressure;BME280_temperature;BME280_humidity;BME280_pressure;Samples;Min_cycle;Max_cycle;Signal;HPM_P1;HPM_P2
2023/02/09 00:01:00;;;;;;;;;;;;;;;-3.08;62.08;99635.53;5057996;28;20375;-60
2023/02/09 00:03:28;;;;;;;;;;;;;;;-3.14;62.50;99629.13;5051838;28;19955;-61
2023/02/09 00:05:58;;;;;;;;;;;;;;;-3.17;62.37;99630.28;5051111;28;19936;-61
2023/02/09 00:08:26;;;;;;;;;;;;;;;-3.17;62.23;99629.47;5051326;28;19925;-61
2023/02/09 00:10:57;;;;;;;;;;;;;;;-3.11;62.44;99623.41;5052920;28;19925;-60
2023/02/09 00:13:49;;;;;;;;;;;;;;;-3.11;62.12;99622.59;5050962;28;19925;-60
2023/02/09 00:16:19;;;;;;;;;;;;;;;-3.10;62.13;99625.06;5039896;28;20393;-61
2023/02/09 00:18:47;;;;;;;;;;;;;;;-3.08;61.77;99622.25;5053824;28;19925;-61
2023/02/09 00:21:15;;;;;;;;;;;;;;;-2.94;61.77;99630.22;5043041;28;19933;-60
2023/02/09 00:23:43;;;;;;;;;;;;;;;-2.91;61.29;99623.72;5054300;28;19928;-61
2023/02/09 00:26:11;;;;;;;;;;;;;;;-3.01;61.73;99628.47;5056097;28;19925;-61
2023/02/09 00:28:43;;;;;;;;;;;;;;;-3.02;61.76;99627.66;5051114;28;19966;-61
2023/02/09 00:31:12;;;;;;;;;;;;;;;-2.98;61.95;99617.50;5047688;28;19925;-61
2023/02/09 00:33:42;;;;;;;;;;;;;;;-3.25;62.00;99614.44;5035544;28;19925;-61
2023/02/09 00:36:11;;;;;;;;;;;;;;;-3.19;61.99;99613.69;5034885;28;20404;-60
2023/02/09 00:38:45;;;;;;;;;;;;;;;-3.16;61.75;99608.00;5024594;28;20381;-61
2023/02/09 00:41:13;;;;;;;;;;;;;;;-3.22;61.50;99608.75;5024081;28;19932;-60
2023/02/09 00:43:44;;;;;;;;;;;;;;;-3.26;62.46;99606.63;5035148;28;20365;-61
2023/02/09 00:46:14;;;;;;;;;;;;;;;-3.26;61.92;99606.63;5053653;28;19956;-61
2023/02/09 00:48:43;;;;;;;;;;;;;;;-3.26;62.48;99601.28;5033687;28;19925;-61
2023/02/09 00:51:12;;;;;;;;;;;;;;;-3.26;62.51;99601.28;5037284;28;19924;-61
2023/02/09 00:53:39;;;;;;;;;;;;;;;-3.21;62.14;99598.94;5052380;28;19959;-60
2023/02/09 00:56:07;;;;;;;;;;;;;;;-3.31;61.94;99601.00;5024692;28;19948;-60
2023/02/09 00:58:35;;;;;;;;;;;;;;;-3.29;62.17;99607.81;5017626;28;19932;-61
2023/02/09 01:01:04;;;;;;;;;;;;;;;-3.40;62.35;99596.81;5013857;28;19925;-61
2023/02/09 01:03:33;;;;;;;;;;;;;;;-3.42;62.68;99602.28;5036257;28;19925;-61
2023/02/09 01:06:02;;;;;;;;;;;;;;;-3.48;62.08;99603.00;5008351;28;19925;-61
2023/02/09 01:08:30;;;;;;;;;;;;;;;-3.46;62.67;99598.34;5021942;28;19933;-61
2023/02/09 01:11:00;;;;;;;;;;;;;;;-3.44;62.61;99602.47;5017452;28;19932;-60
2023/02/09 01:13:28;;;;;;;;;;;;;;;-3.50;62.41;99595.22;5018634;28;19925;-61
2023/02/09 01:15:56;;;;;;;;;;;;;;;-3.46;62.16;99599.16;5014179;28;20042;-61
2023/02/09 01:18:25;;;;;;;;;;;;;;;-3.45;62.60;99589.38;5032840;28;19925;-61
2023/02/09 01:20:54;;;;;;;;;;;;;;;-3.59;62.19;99596.28;5031748;28;19962;-61
2023/02/09 01:23:47;;;;;;;;;;;;;;;-3.70;63.08;99592.22;5005622;28;19925;-60
2023/02/09 01:26:18;;;;;;;;;;;;;;;-3.66;63.11;99597.19;5031577;28;20306;-63
2023/02/09 01:28:48;;;;;;;;;;;;;;;-3.61;63.36;99592.97;5024172;28;20255;-60
2023/02/09 01:31:18;;;;;;;;;;;;;;;-3.65;63.20;99588.19;5028748;28;19925;-60
2023/02/09 01:33:46;;;;;;;;;;;;;;;-3.63;62.66;99586.19;5031315;28;20440;-61
2023/02/09 01:36:14;;;;;;;;;;;;;;;-3.58;62.57;99578.50;5008611;28;19960;-61
2023/02/09 01:38:43;;;;;;;;;;;;;;;-3.55;62.09;99578.16;5015215;28;19928;-61
2023/02/09 01:41:11;;;;;;;;;;;;;;;-3.55;62.34;99572.84;5028662;28;19969;-60
2023/02/09 01:43:54;;;;;;;;;;;;;;;-3.42;62.14;99573.03;5030970;28;20317;-60
2023/02/09 01:46:22;;;;;;;;;;;;;;;-3.56;62.23;99571.19;5025411;28;19992;-60
2023/02/09 01:48:51;;;;;;;;;;;;;;;-3.60;62.53;99576.03;5032751;28;19937;-61
2023/02/09 01:51:21;;;;;;;;;;;;;;;-3.66;62.46;99571.44;5024413;28;19930;-61
2023/02/09 01:53:49;;;;;;;;;;;;;;;-3.68;62.43;99568.13;5015745;28;19952;-61
2023/02/09 01:56:18;;;;;;;;;;;;;;;-3.60;62.60;99564.59;5019351;28;19929;-60
2023/02/09 01:58:47;;;;;;;;;;;;;;;-3.64;62.65;99560.63;5039220;28;19929;-60
2023/02/09 02:01:17;;;;;;;;;;;;;;;-3.71;63.02;99553.38;5048730;28;19950;-61
2023/02/09 02:03:53;;;;;;;;;;;;;;;-3.71;63.64;99553.38;5045300;28;19924;-64
2023/02/09 02:06:21;;;;;;;;;;;;;;;-3.74;63.72;99543.09;5031862;28;19934;-61
2023/02/09 02:08:53;;;;;;;;;;;;;;;-3.67;63.14;99545.03;5058458;28;19925;-60
2023/02/09 02:11:22;;;;;;;;;;;;;;;-3.81;63.44;99542.19;5046786;28;19971;-60
2023/02/09 02:13:52;;;;;;;;;;;;;;;-3.79;62.64;99542.81;5030158;28;20278;-60
2023/02/09 02:16:26;;;;;;;;;;;;;;;-3.91;63.52;99538.13;5025479;28;19945;-60
2023/02/09 02:19:02;;;;;;;;;;;;;;;-4.00;63.16;99543.47;5024462;28;19931;-60
2023/02/09 02:21:44;;;;;;;;;;;;;;;-3.88;63.48;99540.44;5046579;28;20349;-61
2023/02/09 02:24:27;;;;;;;;;;;;;;;-3.87;63.56;99537.59;5018501;28;19929;-60
2023/02/09 02:26:56;;;;;;;;;;;;;;;-3.87;62.92;99542.06;5020571;28;19932;-61
2023/02/09 02:29:30;;;;;;;;;;;;;;;-3.92;63.41;99553.22;5031258;28;20282;-60
2023/02/09 02:32:11;;;;;;;;;;;;;;;-3.93;63.31;99545.44;5049630;28;19932;-60
2023/02/09 02:34:41;;;;;;;;;;;;;;;-4.10;63.36;99540.25;5049874;28;19925;-61
2023/02/09 02:37:12;;;;;;;;;;;;;;;-4.07;63.75;99536.41;5044400;28;19968;-60
2023/02/09 02:39:41;;;;;;;;;;;;;;;-4.12;64.13;99539.59;5050527;28;20281;-61
2023/02/09 02:44:59;;;;;;;;;;;;;;;-4.26;63.83;99538.53;5046173;28;19928;-61
2023/02/09 02:47:31;;;;;;;;;;;;;;;-4.30;63.72;99537.25;5041835;28;19924;-61
2023/02/09 02:52:56;;;;;;;;;;;;;;;-4.17;63.89;99535.81;5031071;28;20378;-61
2023/02/09 02:55:25;;;;;;;;;;;;;;;-4.10;62.98;99534.94;5045050;28;20012;-61
2023/02/09 02:57:53;;;;;;;;;;;;;;;-4.03;62.74;99532.41;5041406;28;19932;-61
2023/02/09 03:00:22;;;;;;;;;;;;;;;-4.13;62.96;99537.13;5054772;28;19925;-61
2023/02/09 03:02:52;;;;;;;;;;;;;;;-4.02;62.49;99534.88;5047773;28;19928;-61
2023/02/09 03:05:21;;;;;;;;;;;;;;;-4.23;63.64;99532.88;5053780;28;19925;-61
2023/02/09 03:07:49;;;;;;;;;;;;;;;-4.25;63.40;99532.22;5042912;28;19929;-61
2023/02/09 03:10:26;;;;;;;;;;;;;;;-4.23;63.11;99532.88;5040273;28;19925;-61
2023/02/09 03:12:57;;;;;;;;;;;;;;;-4.22;63.45;99537.16;5032688;28;19925;-61
2023/02/09 03:15:27;;;;;;;;;;;;;;;-4.28;63.60;99540.53;5059401;28;19971;-61
2023/02/09 03:17:59;;;;;;;;;;;;;;;-4.38;63.16;99539.09;5051356;28;19931;-61
2023/02/09 03:20:29;;;;;;;;;;;;;;;-4.34;63.77;99532.44;5058735;28;19925;-60
2023/02/09 03:23:01;;;;;;;;;;;;;;;-4.29;63.70;99543.38;5051977;28;20051;-60
2023/02/09 03:25:30;;;;;;;;;;;;;;;-4.25;63.21;99534.88;5053130;28;19924;-61
2023/02/09 03:27:59;;;;;;;;;;;;;;;-4.26;63.07;99533.25;5049337;28;20378;-61
2023/02/09 03:30:27;;;;;;;;;;;;;;;-4.19;63.07;99537.84;5055293;28;19929;-60
2023/02/09 03:32:57;;;;;;;;;;;;;;;-4.20;63.29;99537.00;5029155;28;19983;-61
2023/02/09 03:35:26;;;;;;;;;;;;;;;-4.48;63.58;99524.22;5022936;28;19939;-60
2023/02/09 03:37:54;;;;;;;;;;;;;;;-4.51;64.05;99526.44;5041278;28;20382;-65
2023/02/09 03:40:22;;;;;;;;;;;;;;;-4.43;64.22;99526.34;5051432;28;19928;-61
2023/02/09 03:43:14;;;;;;;;;;;;;;;-4.45;63.14;99533.69;5035153;28;19936;-60
2023/02/09 03:46:06;;;;;;;;;;;;;;;-4.59;63.99;99529.94;5046111;28;19930;-61
2023/02/09 03:48:35;;;;;;;;;;;;;;;-4.45;63.76;99525.72;5047046;28;19925;-60
2023/02/09 03:51:05;;;;;;;;;;;;;;;-4.44;63.61;99529.19;5045384;28;19971;-61
2023/02/09 03:53:35;;;;;;;;;;;;;;;-4.44;63.19;99530.03;5046238;28;19929;-60
2023/02/09 03:56:03;;;;;;;;;;;;;;;-4.39;63.17;99535.63;5045896;28;19931;-60
2023/02/09 03:58:32;;;;;;;;;;;;;;;-4.44;63.59;99535.31;5053691;28;20396;-60
2023/02/09 04:01:03;;;;;;;;;;;;;;;-4.56;63.62;99531.44;5036329;28;19925;-60
2023/02/09 04:03:31;;;;;;;;;;;;;;;-4.54;63.93;99529.41;5056084;28;19924;-61
2023/02/09 04:06:01;;;;;;;;;;;;;;;-4.62;64.04;99527.66;5055830;28;19932;-60
2023/02/09 04:08:29;;;;;;;;;;;;;;;-4.69;63.98;99528.50;5048294;28;20282;-61
2023/02/09 04:10:57;;;;;;;;;;;;;;;-4.78;64.87;99527.72;5048816;28;19925;-62
2023/02/09 04:13:25;;;;;;;;;;;;;;;-4.77;64.58;99529.38;5045043;28;19924;-61
2023/02/09 04:15:54;;;;;;;;;;;;;;;-4.82;64.58;99534.38;5057195;28;19931;-60
2023/02/09 04:18:22;;;;;;;;;;;;;;;-4.72;64.44;99531.50;5051692;28;19935;-60
2023/02/09 04:20:50;;;;;;;;;;;;;;;-4.66;64.62;99530.81;5049935;28;19932;-61
2023/02/09 04:23:20;;;;;;;;;;;;;;;-4.63;64.41;99530.47;5047791;28;20341;-61
2023/02/09 04:25:48;;;;;;;;;;;;;;;-4.57;63.82;99540.38;5052780;28;19929;-61
2023/02/09 04:28:17;;;;;;;;;;;;;;;-4.63;64.31;99543.75;5034045;28;20301;-60
2023/02/09 04:30:45;;;;;;;;;;;;;;;-4.69;64.58;99544.41;5053022;28;19925;-61
2023/02/09 04:33:15;;;;;;;;;;;;;;;-4.76;64.54;99547.75;5054904;28;19981;-61
2023/02/09 04:35:47;;;;;;;;;;;;;;;-4.68;64.49;99546.09;5044565;28;19925;-61
2023/02/09 04:38:18;;;;;;;;;;;;;;;-4.79;64.45;99542.00;5041953;28;19947;-61
2023/02/09 04:40:47;;;;;;;;;;;;;;;-4.83;64.81;99545.97;5023813;28;19925;-62
2023/02/09 04:43:16;;;;;;;;;;;;;;;-4.83;64.84;99544.16;5045459;28;20358;-61
2023/02/09 04:48:38;;;;;;;;;;;;;;;-4.83;64.60;99540.69;5034589;28;19925;-61
2023/02/09 04:51:06;;;;;;;;;;;;;;;-4.82;65.25;99548.44;5042919;28;19932;-61
2023/02/09 04:53:36;;;;;;;;;;;;;;;-4.93;64.95;99551.47;5052411;28;19931;-61
2023/02/09 04:56:31;;;;;;;;;;;;;;;-4.95;64.95;99542.88;5045975;28;19932;-61
2023/02/09 05:01:46;;;;;;;;;;;;;;;-4.88;64.66;99535.06;5050395;28;19925;-61
2023/02/09 05:04:14;;;;;;;;;;;;;;;-4.92;64.65;99537.22;5011695;28;20298;-61
2023/02/09 05:06:42;;;;;;;;;;;;;;;-4.92;65.00;99537.22;5044194;28;20267;-61
2023/02/09 05:09:10;;;;;;;;;;;;;;;-4.86;64.65;99538.34;5047701;28;19932;-61
2023/02/09 05:11:38;;;;;;;;;;;;;;;-4.96;64.47;99548.34;5033203;28;19925;-61
2023/02/09 05:14:10;;;;;;;;;;;;;;;-5.02;64.58;99539.25;5051650;28;19924;-61
2023/02/09 05:16:38;;;;;;;;;;;;;;;-4.99;64.68;99546.03;5047838;28;19956;-61
2023/02/09 05:19:06;;;;;;;;;;;;;;;-5.00;64.48;99550.53;5051693;28;19924;-61
2023/02/09 05:21:34;;;;;;;;;;;;;;;-4.81;64.35;99543.97;5048630;28;19929;-61
2023/02/09 05:24:02;;;;;;;;;;;;;;;-4.92;64.62;99552.31;5050740;28;20373;-61
2023/02/09 05:26:30;;;;;;;;;;;;;;;-5.05;65.24;99547.56;5049898;28;19924;-61
2023/02/09 05:28:59;;;;;;;;;;;;;;;-5.14;65.36;99548.56;5030619;28;19925;-61
2023/02/09 05:31:28;;;;;;;;;;;;;;;-5.15;64.81;99547.75;5048367;28;19932;-61
2023/02/09 05:33:59;;;;;;;;;;;;;;;-5.04;64.44;99549.19;5045026;28;19925;-61
2023/02/09 05:36:28;;;;;;;;;;;;;;;-5.17;65.81;99543.59;5031186;28;19925;-61
2023/02/09 05:38:56;;;;;;;;;;;;;;;-5.17;65.12;99540.94;5034192;28;19936;-61
2023/02/09 05:44:10;;;;;;;;;;;;;;;-5.19;64.84;99538.47;5048717;28;19987;-61
2023/02/09 05:46:39;;;;;;;;;;;;;;;-5.15;64.77;99541.63;5051638;28;19929;-62
2023/02/09 05:49:07;;;;;;;;;;;;;;;-5.09;64.74;99536.47;5047398;28;19928;-60
2023/02/09 05:51:35;;;;;;;;;;;;;;;-5.20;65.22;99534.19;5032956;28;19925;-61
2023/02/09 05:54:28;;;;;;;;;;;;;;;-5.15;64.95;99534.50;5048344;28;19933;-61
2023/02/09 05:56:57;;;;;;;;;;;;;;;-5.31;65.68;99531.91;5028984;28;20360;-61
2023/02/09 05:59:25;;;;;;;;;;;;;;;-5.26;65.67;99540.16;5050483;28;20306;-61
2023/02/09 06:01:55;;;;;;;;;;;;;;;-5.20;64.77;99547.44;5049576;28;20369;-61
2023/02/09 06:04:23;;;;;;;;;;;;;;;-5.32;65.88;99540.84;5048301;28;19928;-61
2023/02/09 06:06:51;;;;;;;;;;;;;;;-5.45;65.93;99546.66;5047730;28;19925;-60
2023/02/09 06:09:19;;;;;;;;;;;;;;;-5.54;66.19;99543.19;5057110;28;19924;-61
2023/02/09 06:11:47;;;;;;;;;;;;;;;-5.54;66.25;99545.00;5046925;28;19929;-61
2023/02/09 06:14:15;;;;;;;;;;;;;;;-5.64;66.71;99547.84;5048871;28;19929;-61
2023/02/09 06:16:43;;;;;;;;;;;;;;;-5.46;66.26;99546.81;5028670;28;19928;-61
2023/02/09 06:19:13;;;;;;;;;;;;;;;-5.50;65.57;99546.31;5051864;28;20373;-61
2023/02/09 06:21:41;;;;;;;;;;;;;;;-5.46;65.84;99547.66;5045671;28;19925;-61
2023/02/09 06:24:10;;;;;;;;;;;;;;;-5.42;66.28;99543.66;5047403;28;20305;-61
2023/02/09 06:26:38;;;;;;;;;;;;;;;-5.46;66.51;99542.34;5048054;28;19935;-61
2023/02/09 06:29:06;;;;;;;;;;;;;;;-5.27;65.42;99538.50;5049935;28;19928;-61
2023/02/09 06:31:34;;;;;;;;;;;;;;;-5.37;65.85;99544.00;5047746;28;19925;-61
2023/02/09 06:34:04;;;;;;;;;;;;;;;-5.53;66.69;99555.44;5047393;28;19925;-61
2023/02/09 06:36:33;;;;;;;;;;;;;;;-5.36;66.12;99548.28;5046235;28;19932;-61
2023/02/09 06:39:02;;;;;;;;;;;;;;;-5.39;65.95;99543.31;5048639;28;19933;-61
2023/02/09 06:41:32;;;;;;;;;;;;;;;-5.62;66.89;99555.63;5048097;28;19948;-61
2023/02/09 06:44:00;;;;;;;;;;;;;;;-5.43;66.28;99554.41;5049040;28;19948;-61
2023/02/09 06:46:28;;;;;;;;;;;;;;;-5.39;66.19;99556.56;5049488;28;20297;-61
2023/02/09 06:48:56;;;;;;;;;;;;;;;-5.32;65.91;99552.25;5021186;28;20301;-61
2023/02/09 06:51:26;;;;;;;;;;;;;;;-5.26;65.38;99550.75;5047236;28;19931;-60
2023/02/09 06:54:19;;;;;;;;;;;;;;;-5.21;65.65;99552.91;5047295;28;19929;-60
2023/02/09 06:56:49;;;;;;;;;;;;;;;-5.21;65.32;99543.13;5016579;28;19933;-60
2023/02/09 06:59:17;;;;;;;;;;;;;;;-5.23;64.72;99549.56;5022872;28;19932;-60
2023/02/09 07:01:45;;;;;;;;;;;;;;;-5.24;65.12;99553.22;5028611;28;19932;-60
2023/02/09 07:04:13;;;;;;;;;;;;;;;-5.22;65.84;99561.81;5012963;28;19935;-58
2023/02/09 07:06:41;;;;;;;;;;;;;;;-5.15;65.78;99560.16;5025295;28;19928;-58
2023/02/09 07:09:10;;;;;;;;;;;;;;;-5.12;64.85;99560.63;5028599;28;20275;-58
2023/02/09 07:11:37;;;;;;;;;;;;;;;-5.10;65.91;99558.66;5030325;28;20020;-58
2023/02/09 07:14:07;;;;;;;;;;;;;;;-5.08;65.25;99563.78;5025594;28;19964;-57
2023/02/09 07:16:34;;;;;;;;;;;;;;;-5.07;65.50;99566.25;5034041;28;19929;-58
2023/02/09 07:19:03;;;;;;;;;;;;;;;-4.99;65.05;99562.78;5036746;28;19967;-58
2023/02/09 07:21:31;;;;;;;;;;;;;;;-4.91;64.51;99572.50;5022650;28;19925;-57
2023/02/09 07:24:00;;;;;;;;;;;;;;;-4.73;64.69;99574.94;5031255;28;19932;-57
2023/02/09 07:26:27;;;;;;;;;;;;;;;-4.71;63.86;99575.59;5011699;28;19926;-58
2023/02/09 07:28:56;;;;;;;;;;;;;;;-4.72;64.59;99573.94;5030662;28;20352;-58
2023/02/09 07:31:25;;;;;;;;;;;;;;;-4.81;64.44;99576.59;5029045;28;20291;-58
2023/02/09 07:33:54;;;;;;;;;;;;;;;-4.69;64.41;99576.22;5022936;28;19932;-58
2023/02/09 07:36:22;;;;;;;;;;;;;;;-4.64;64.60;99574.72;5029150;28;19926;-58
2023/02/09 07:38:51;;;;;;;;;;;;;;;-4.65;64.31;99580.19;5028237;28;20297;-58
2023/02/09 07:41:20;;;;;;;;;;;;;;;-4.49;63.78;99569.50;5023654;28;19929;-57
2023/02/09 07:43:48;;;;;;;;;;;;;;;-4.39;62.63;99580.72;5033816;28;19963;-57
2023/02/09 07:46:16;;;;;;;;;;;;;;;-4.36;63.13;99579.56;5019019;28;19933;-57
2023/02/09 07:48:46;;;;;;;;;;;;;;;-4.29;61.98;99575.22;5005000;28;19929;-58
2023/02/09 07:51:14;;;;;;;;;;;;;;;-4.34;61.97;99581.03;5032972;28;19937;-58
2023/02/09 07:53:42;;;;;;;;;;;;;;;-4.22;61.48;99586.75;5029429;28;19932;-57
2023/02/09 07:56:10;;;;;;;;;;;;;;;-4.23;61.92;99590.44;5025742;28;19925;-57
2023/02/09 07:58:38;;;;;;;;;;;;;;;-4.16;62.12;99591.38;5025812;28;19947;-58
2023/02/09 08:01:08;;;;;;;;;;;;;;;-4.19;61.84;99591.72;5028617;28;19956;-57
2023/02/09 08:03:36;;;;;;;;;;;;;;;-4.39;62.09;99593.16;5031575;28;19932;-58
2023/02/09 08:06:08;;;;;;;;;;;;;;;-4.15;61.65;99594.88;5034815;28;19943;-58
2023/02/09 08:08:37;;;;;;;;;;;;;;;-4.19;62.27;99596.22;5029403;28;19925;-58
2023/02/09 08:11:05;;;;;;;;;;;;;;;-4.11;62.09;99598.81;5030904;28;20313;-58
2023/02/09 08:13:34;;;;;;;;;;;;;;;-3.95;61.26;99598.69;5023945;28;19926;-57
2023/02/09 08:16:03;;;;;;;;;;;;;;;-4.07;61.90;99592.16;5030134;28;19975;-57
2023/02/09 08:18:33;;;;;;;;;;;;;;;-3.92;61.43;99590.41;5005987;28;19979;-59
2023/02/09 08:21:26;;;;;;;;;;;;;;;-3.89;61.47;99595.34;5013802;28;19933;-58
2023/02/09 08:23:56;;;;;;;;;;;;;;;-3.68;61.16;99594.69;5029276;28;19925;-58
2023/02/09 08:26:27;;;;;;;;;;;;;;;-3.61;60.70;99594.81;5024955;28;19933;-60
2023/02/09 08:28:56;;;;;;;;;;;;;;;-3.61;60.11;99592.97;5025071;28;19937;-58
2023/02/09 08:31:24;;;;;;;;;;;;;;;-3.54;60.60;99588.59;5025097;28;19925;-57
2023/02/09 08:33:53;;;;;;;;;;;;;;;-3.34;59.95;99594.25;5029727;28;19925;-57
2023/02/09 08:36:21;;;;;;;;;;;;;;;-3.19;60.04;99589.78;5027779;28;19980;-57
2023/02/09 08:41:42;;;;;;;;;;;;;;;-2.87;58.16;99595.75;5010821;28;19932;-57
2023/02/09 08:44:13;;;;;;;;;;;;;;;-2.82;57.81;99588.06;5033512;28;19925;-58
2023/02/09 08:47:05;;;;;;;;;;;;;;;-2.83;57.29;99594.38;5022019;28;20374;-57
2023/02/09 08:49:33;;;;;;;;;;;;;;;-2.75;57.19;99596.94;5020280;28;19952;-57
2023/02/09 08:52:02;;;;;;;;;;;;;;;-2.71;56.78;99590.25;5032665;28;19932;-57
2023/02/09 08:54:31;;;;;;;;;;;;;;;-2.57;56.52;99585.09;5031290;28;20454;-57
2023/02/09 08:57:01;;;;;;;;;;;;;;;-2.54;55.99;99598.03;5023739;28;19960;-58
2023/02/09 08:59:29;;;;;;;;;;;;;;;-2.43;56.19;99584.25;5045067;28;19932;-58
2023/02/09 09:01:57;;;;;;;;;;;;;;;-2.44;56.10;99582.59;5028713;28;19932;-58
2023/02/09 09:04:26;;;;;;;;;;;;;;;-2.19;54.98;99589.22;5044514;28;20228;-57
2023/02/09 09:06:55;;;;;;;;;;;;;;;-2.18;55.72;99582.91;5030313;28;19924;-57
2023/02/09 09:09:23;;;;;;;;;;;;;;;-1.91;54.47;99580.53;5045838;28;19928;-57
2023/02/09 09:11:50;;;;;;;;;;;;;;;-1.92;54.82;99573.53;5025778;28;19924;-58
2023/02/09 09:14:20;;;;;;;;;;;;;;;-1.80;53.59;99573.88;5045714;28;19936;-58
2023/02/09 09:16:49;;;;;;;;;;;;;;;-1.89;54.13;99581.16;5049074;28;19936;-57
2023/02/09 09:19:17;;;;;;;;;;;;;;;-1.74;53.95;99584.59;5024847;28;20590;-58
2023/02/09 09:21:45;;;;;;;;;;;;;;;-1.49;52.79;99578.84;5044824;28;19925;-59
2023/02/09 09:24:13;;;;;;;;;;;;;;;-1.35;52.46;99580.59;5044876;28;19947;-57
2023/02/09 09:26:41;;;;;;;;;;;;;;;-1.42;52.80;99577.06;5010672;28;19925;-59
2023/02/09 09:29:09;;;;;;;;;;;;;;;-1.45;52.85;99572.13;5048658;28;19925;-58
2023/02/09 09:31:38;;;;;;;;;;;;;;;-1.32;52.48;99565.06;5048970;28;20058;-58
2023/02/09 09:34:07;;;;;;;;;;;;;;;-1.16;52.20;99555.94;5048104;28;19932;-57
2023/02/09 09:36:35;;;;;;;;;;;;;;;-1.09;52.41;99564.78;5030084;28;20297;-64
2023/02/09 09:39:03;;;;;;;;;;;;;;;-0.94;52.15;99558.53;5050846;28;19924;-58
2023/02/09 09:41:33;;;;;;;;;;;;;;;-0.78;51.53;99558.22;5041194;28;19932;-58
2023/02/09 09:44:02;;;;;;;;;;;;;;;-0.63;51.01;99553.56;5048381;28;19968;-57
2023/02/09 09:46:33;;;;;;;;;;;;;;;-0.70;50.78;99563.38;5041625;28;20378;-58
2023/02/09 09:49:03;;;;;;;;;;;;;;;-0.53;51.26;99558.53;5051913;28;19932;-57
2023/02/09 09:51:35;;;;;;;;;;;;;;;-0.50;51.01;99555.44;5045703;28;20538;-63
2023/02/09 09:54:28;;;;;;;;;;;;;;;-0.42;50.79;99562.47;5049613;28;20016;-58
2023/02/09 09:56:57;;;;;;;;;;;;;;;-0.39;51.29;99557.53;5058462;28;20439;-58
2023/02/09 09:59:27;;;;;;;;;;;;;;;-0.29;50.98;99555.31;5047628;28;19952;-58
2023/02/09 10:01:55;;;;;;;;;;;;;;;-0.15;50.51;99564.22;5048252;28;19925;-58
2023/02/09 10:04:24;;;;;;;;;;;;;;;-0.11;50.91;99560.09;5051895;28;19947;-57
2023/02/09 10:06:56;;;;;;;;;;;;;;;-0.12;50.26;99568.31;5046910;28;19988;-58
2023/02/09 10:09:28;;;;;;;;;;;;;;;-0.07;50.67;99560.53;5052946;28;20369;-59
2023/02/09 10:11:58;;;;;;;;;;;;;;;0.03;50.15;99560.13;5029242;28;19929;-58
2023/02/09 10:14:30;;;;;;;;;;;;;;;0.05;49.68;99558.06;5051516;28;19924;-58
2023/02/09 10:16:58;;;;;;;;;;;;;;;0.10;50.38;99563.63;5032017;28;20301;-58
2023/02/09 10:19:31;;;;;;;;;;;;;;;0.09;49.69;99570.00;5043311;28;19984;-58
2023/02/09 10:22:00;;;;;;;;;;;;;;;0.15;50.25;99571.88;5034639;28;19933;-58
2023/02/09 10:24:29;;;;;;;;;;;;;;;0.16;50.94;99562.81;5040779;28;20130;-58
2023/02/09 10:27:01;;;;;;;;;;;;;;;0.34;49.84;99565.72;5051323;28;20301;-58
2023/02/09 10:29:30;;;;;;;;;;;;;;;0.49;49.88;99569.03;5046944;28;20374;-58
2023/02/09 10:32:05;;;;;;;;;;;;;;;0.52;48.96;99571.28;5055191;28;20377;-58
2023/02/09 10:34:41;;;;;;;;;;;;;;;0.52;48.91;99562.44;5051727;28;19924;-58
2023/02/09 10:37:30;;;;;;;;;;;;;;;0.54;48.88;99563.06;5046952;28;19932;-57
2023/02/09 10:43:19;;;;;;;;;;;;;;;0.63;49.36;99553.78;5055852;28;19937;-57
2023/02/09 10:45:51;;;;;;;;;;;;;;;0.61;49.13;99547.03;5046700;28;20293;-57
2023/02/09 10:48:20;;;;;;;;;;;;;;;0.69;49.43;99544.97;5029144;28;19933;-58
2023/02/09 10:50:51;;;;;;;;;;;;;;;0.86;49.21;99548.03;5048277;28;19924;-58
2023/02/09 10:53:22;;;;;;;;;;;;;;;0.88;48.54;99550.50;5047225;28;19925;-58
2023/02/09 10:56:16;;;;;;;;;;;;;;;0.63;48.63;99547.63;5049966;28;19925;-58
2023/02/09 10:58:48;;;;;;;;;;;;;;;0.42;49.12;99554.81;5046435;28;19980;-58
2023/02/09 11:01:17;;;;;;;;;;;;;;;0.65;49.97;99557.09;5049779;28;20440;-58
2023/02/09 11:03:56;;;;;;;;;;;;;;;0.71;49.29;99547.44;5052621;28;19932;-57
2023/02/09 11:06:26;;;;;;;;;;;;;;;0.71;49.67;99536.72;5041317;28;19971;-59
2023/02/09 11:08:56;;;;;;;;;;;;;;;0.74;50.03;99538.97;5049610;28;19925;-58
2023/02/09 11:11:32;;;;;;;;;;;;;;;0.94;49.91;99536.28;5045093;28;19940;-58
2023/02/09 11:14:00;;;;;;;;;;;;;;;1.00;49.46;99536.25;5026265;28;19931;-58
2023/02/09 11:16:43;;;;;;;;;;;;;;;1.08;49.28;99532.53;5045886;28;19962;-58
2023/02/09 11:19:14;;;;;;;;;;;;;;;1.32;48.54;99539.03;5050410;28;19925;-58
2023/02/09 11:22:00;;;;;;;;;;;;;;;1.20;48.61;99528.19;5039492;28;19925;-57
2023/02/09 11:24:53;;;;;;;;;;;;;;;1.00;49.86;99524.72;5047576;28;19924;-58
2023/02/09 11:27:29;;;;;;;;;;;;;;;1.08;49.81;99526.38;5042916;28;20395;-58
2023/02/09 11:32:55;;;;;;;;;;;;;;;1.66;48.82;99523.69;5044240;28;19932;-58
2023/02/09 11:35:24;;;;;;;;;;;;;;;1.49;48.89;99524.16;5053787;28;19931;-57
2023/02/09 11:37:54;;;;;;;;;;;;;;;1.58;48.90;99528.22;5048716;28;20366;-57
2023/02/09 11:43:18;;;;;;;;;;;;;;;1.73;49.17;99527.13;5053131;28;20320;-58
2023/02/09 11:45:47;;;;;;;;;;;;;;;1.69;48.46;99524.06;5052802;28;19924;-58
2023/02/09 11:48:18;;;;;;;;;;;;;;;1.65;48.91;99522.88;5030520;28;19982;-58
2023/02/09 11:50:53;;;;;;;;;;;;;;;1.76;48.70;99526.72;5047032;28;20024;-58
2023/02/09 11:53:27;;;;;;;;;;;;;;;1.70;48.18;99519.50;5050937;28;19932;-58
2023/02/09 11:56:21;;;;;;;;;;;;;;;1.69;48.02;99515.19;5028445;28;19932;-58
2023/02/09 11:58:52;;;;;;;;;;;;;;;1.81;48.46;99508.13;5022633;28;19949;-57
2023/02/09 12:01:28;;;;;;;;;;;;;;;1.98;48.26;99511.94;5029573;28;19940;-58
2023/02/09 12:04:21;;;;;;;;;;;;;;;1.88;48.33;99511.59;5031995;28;19932;-58
2023/02/09 12:06:50;;;;;;;;;;;;;;;1.87;47.57;99503.78;5007960;28;19941;-58
2023/02/09 12:09:27;;;;;;;;;;;;;;;1.77;47.75;99498.88;5035147;28;19987;-58
2023/02/09 12:11:59;;;;;;;;;;;;;;;1.83;47.86;99498.03;5036781;28;19925;-58
2023/02/09 12:14:46;;;;;;;;;;;;;;;1.81;48.54;99497.41;5031795;28;19983;-58
2023/02/09 12:17:16;;;;;;;;;;;;;;;2.21;47.24;99494.47;5030509;28;19930;-57
2023/02/09 12:22:45;;;;;;;;;;;;;;;2.05;46.93;99483.22;5028557;28;20362;-58
2023/02/09 12:25:21;;;;;;;;;;;;;;;1.98;47.85;99489.69;5025697;28;19925;-57
2023/02/09 12:28:20;;;;;;;;;;;;;;;2.12;47.56;99482.34;5032194;28;19983;-58
2023/02/09 12:31:09;;;;;;;;;;;;;;;2.26;47.41;99478.53;4958494;28;19938;-57
2023/02/09 12:33:38;;;;;;;;;;;;;;;2.22;46.65;99462.06;5022910;28;20361;-58
2023/02/09 12:36:21;;;;;;;;;;;;;;;2.25;46.87;99455.44;5026167;28;19948;-58
2023/02/09 12:39:00;;;;;;;;;;;;;;;2.32;47.14;99448.16;5031794;28;19929;-58
2023/02/09 12:41:47;;;;;;;;;;;;;;;2.32;47.49;99443.59;5037162;28;20289;-58
2023/02/09 12:44:30;;;;;;;;;;;;;;;2.45;47.01;99440.00;5021662;28;19953;-58
2023/02/09 12:46:58;;;;;;;;;;;;;;;2.47;46.68;99439.78;5009380;28;19925;-57
2023/02/09 12:49:34;;;;;;;;;;;;;;;2.55;47.28;99434.09;5013284;28;20294;-56
2023/02/09 12:52:16;;;;;;;;;;;;;;;2.67;47.00;99445.78;5035255;28;19932;-57
2023/02/09 12:54:45;;;;;;;;;;;;;;;2.71;47.27;99441.56;5048221;28;19929;-61
2023/02/09 12:57:32;;;;;;;;;;;;;;;2.65;46.23;99439.78;5025728;28;19987;-57
2023/02/09 13:00:19;;;;;;;;;;;;;;;2.77;46.62;99438.03;5046170;28;20364;-57
2023/02/09 13:02:48;;;;;;;;;;;;;;;2.94;45.91;99429.38;5031900;28;19925;-57
2023/02/09 13:05:19;;;;;;;;;;;;;;;2.86;46.34;99423.25;5022224;28;20000;-57
2023/02/09 13:07:49;;;;;;;;;;;;;;;2.90;46.13;99420.94;5028480;28;19924;-57
2023/02/09 13:10:21;;;;;;;;;;;;;;;2.97;46.08;99418.16;5047327;28;20804;-57
2023/02/09 13:12:50;;;;;;;;;;;;;;;2.83;46.01;99425.56;5051764;28;19925;-57
2023/02/09 13:15:20;;;;;;;;;;;;;;;2.78;46.28;99418.19;5037887;28;20414;-59
2023/02/09 13:17:53;;;;;;;;;;;;;;;2.82;46.52;99415.84;4988740;28;20385;-58
2023/02/09 13:20:45;;;;;;;;;;;;;;;2.93;47.06;99411.59;4982327;28;20040;-58
2023/02/09 13:23:19;;;;;;;;;;;;;;;2.98;45.23;99411.75;4986683;28;20417;-58
2023/02/09 13:26:18;;;;;;;;;;;;;;;2.84;45.88;99419.97;4986371;28;19980;-58
2023/02/09 13:28:47;;;;;;;;;;;;;;;2.95;46.43;99414.91;4980198;28;20016;-57
2023/02/09 13:31:22;;;;;;;;;;;;;;;2.93;46.50;99416.97;4979261;28;19926;-57
2023/02/09 13:33:51;;;;;;;;;;;;;;;2.81;46.17;99412.34;4978471;28;20364;-58
2023/02/09 13:36:22;;;;;;;;;;;;;;;2.79;46.68;99419.00;4957994;28;19926;-57
2023/02/09 13:38:53;;;;;;;;;;;;;;;2.82;45.96;99407.81;4987546;28;19980;-58
2023/02/09 13:41:24;;;;;;;;;;;;;;;2.78;46.42;99414.69;4979228;28;19931;-57